createdAt,value
2022-09-20T00:03:39.101Z,1012.56
2022-09-20T00:08:43.266Z,1012.47
2022-09-20T00:13:47.433Z,1012.57
2022-09-20T00:18:51.603Z,1012.57
2022-09-20T00:23:55.775Z,1012.60
2022-09-20T00:28:59.887Z,1012.65
2022-09-20T00:34:04.051Z,1012.55
2022-09-20T00:39:08.219Z,1012.69
2022-09-20T00:44:12.386Z,1012.56
2022-09-20T00:49:16.568Z,1012.66
2022-09-20T00:54:20.872Z,1012.63
2022-09-20T00:59:23.009Z,1012.67
2022-09-20T01:04:27.166Z,1012.66
2022-09-20T01:09:29.425Z,1012.64
2022-09-20T01:14:33.600Z,1012.64
2022-09-20T01:19:37.768Z,1012.62
2022-09-20T01:24:41.911Z,1012.65
2022-09-20T01:29:46.072Z,1012.64
2022-09-20T01:34:50.279Z,1012.63
2022-09-20T01:39:54.385Z,1012.60
2022-09-20T01:44:58.552Z,1012.68
2022-09-20T01:50:02.707Z,1012.62
2022-09-20T01:55:06.911Z,1012.65
2022-09-20T02:00:11.047Z,1012.71
2022-09-20T02:05:15.217Z,1012.67
2022-09-20T02:10:19.399Z,1012.60
2022-09-20T02:15:23.536Z,1012.61
2022-09-20T02:20:27.673Z,1012.53
2022-09-20T02:25:31.871Z,1012.60
2022-09-20T02:30:36.018Z,1012.62
2022-09-20T02:35:40.204Z,1012.68
2022-09-20T02:40:44.443Z,1012.74
2022-09-20T02:45:48.565Z,1012.77
2022-09-20T02:50:52.686Z,1012.74
2022-09-20T02:55:54.969Z,1012.76
2022-09-20T03:00:59.256Z,1012.74
2022-09-20T03:06:03.279Z,1012.71
2022-09-20T03:11:07.470Z,1012.70
2022-09-20T03:16:11.647Z,1012.70
2022-09-20T03:21:15.782Z,1012.72
2022-09-20T03:26:19.945Z,1012.66
2022-09-20T03:31:24.144Z,1012.69
2022-09-20T03:36:28.234Z,1012.76
2022-09-20T03:41:32.415Z,1012.71
2022-09-20T03:46:36.569Z,1012.77
2022-09-20T03:51:40.765Z,1012.73
2022-09-20T03:56:44.915Z,1012.62
2022-09-20T04:01:49.243Z,1012.62
2022-09-20T04:06:53.225Z,1012.72
2022-09-20T04:11:57.409Z,1012.70
2022-09-20T04:17:01.647Z,1012.71
2022-09-20T04:22:05.725Z,1012.79
2022-09-20T04:27:09.884Z,1012.75
2022-09-20T04:32:14.110Z,1012.85
2022-09-20T04:37:18.235Z,1012.74
2022-09-20T04:42:20.514Z,1012.89
2022-09-20T04:47:24.629Z,1012.88
2022-09-20T04:52:26.922Z,1012.92
2022-09-20T04:57:31.094Z,1012.88
2022-09-20T05:02:35.395Z,1012.88
2022-09-20T05:07:39.381Z,1012.90
2022-09-20T05:12:43.572Z,1012.85
2022-09-20T05:17:47.713Z,1012.99
2022-09-20T05:22:51.921Z,1013.09
2022-09-20T05:27:56.054Z,1013.07
2022-09-20T05:33:00.214Z,1012.98
2022-09-20T05:38:04.389Z,1013.03
2022-09-20T05:43:08.581Z,1013.06
2022-09-20T05:48:12.697Z,1013.12
2022-09-20T05:53:16.854Z,1013.18
2022-09-20T05:58:21.032Z,1013.23
2022-09-20T06:03:25.201Z,1013.19
2022-09-20T06:08:29.350Z,1013.32
2022-09-20T06:13:33.517Z,1013.28
2022-09-20T06:18:37.660Z,1013.31
2022-09-20T06:23:41.830Z,1013.28
2022-09-20T06:28:46.010Z,1013.38
2022-09-20T06:33:50.179Z,1013.42
2022-09-20T06:38:52.481Z,1013.45
2022-09-20T06:43:56.593Z,1013.39
2022-09-20T06:48:58.856Z,1013.31
2022-09-20T06:54:03.063Z,1013.43
2022-09-20T06:59:07.257Z,1013.49
2022-09-20T07:04:11.365Z,1013.59
2022-09-20T07:09:15.519Z,1013.70
2022-09-20T07:14:19.695Z,1013.76
2022-09-20T07:19:23.824Z,1013.69
2022-09-20T07:24:28.014Z,1013.69
2022-09-20T07:29:32.157Z,1013.72
2022-09-20T07:34:36.350Z,1013.83
2022-09-20T07:39:40.474Z,1013.80
2022-09-20T07:44:44.631Z,1013.81
2022-09-20T07:49:48.833Z,1013.80
2022-09-20T07:54:52.977Z,1013.78
2022-09-20T07:59:57.154Z,1013.73
2022-09-20T08:05:01.292Z,1013.80
2022-09-20T08:10:05.452Z,1013.87
2022-09-20T08:15:11.932Z,1013.78
2022-09-20T08:20:13.773Z,1013.91
2022-09-20T08:25:17.947Z,1013.93
2022-09-20T08:30:26.910Z,1013.80
2022-09-20T08:35:24.395Z,1013.71
2022-09-20T08:40:28.594Z,1013.87
2022-09-20T08:45:34.914Z,1013.94
2022-09-20T08:50:36.845Z,1013.96
2022-09-20T08:55:41.001Z,1014.01
2022-09-20T09:00:45.242Z,1014.02
2022-09-20T09:05:49.310Z,1014.11
2022-09-20T09:10:53.522Z,1014.05
2022-09-20T09:15:57.617Z,1014.04
2022-09-20T09:21:01.793Z,1014.21
2022-09-20T09:26:05.980Z,1014.18
2022-09-20T09:31:10.133Z,1014.14
2022-09-20T09:36:14.276Z,1014.13
2022-09-20T09:41:18.483Z,1014.12
2022-09-20T09:46:22.671Z,1014.15
2022-09-20T09:51:26.786Z,1014.04
2022-09-20T09:56:30.968Z,1014.00
2022-09-20T10:01:35.135Z,1013.97
2022-09-20T10:06:39.258Z,1013.92
2022-09-20T10:16:47.605Z,1013.76
2022-09-20T10:21:51.735Z,1013.78
2022-09-20T10:26:54.022Z,1013.83
2022-09-20T10:31:58.161Z,1013.81
2022-09-20T10:37:02.375Z,1013.82
2022-09-20T10:42:06.468Z,1013.76
2022-09-20T10:47:10.714Z,1013.89
2022-09-20T10:52:14.783Z,1013.79
2022-09-20T10:57:18.982Z,1013.88
2022-09-20T11:02:23.148Z,1013.89
2022-09-20T11:07:27.286Z,1013.81
2022-09-20T11:12:31.458Z,1013.88
2022-09-20T11:17:35.625Z,1013.90
2022-09-20T11:22:39.794Z,1013.86
2022-09-20T11:32:48.105Z,1013.86
2022-09-20T11:37:52.238Z,1013.93
2022-09-20T11:42:56.387Z,1013.83
2022-09-20T11:48:00.568Z,1013.92
2022-09-20T11:53:04.712Z,1013.87
2022-09-20T11:58:08.858Z,1013.89
2022-09-20T12:03:13.160Z,1013.89
2022-09-20T12:08:17.290Z,1013.98
2022-09-20T12:13:21.372Z,1013.84
2022-09-20T12:23:27.892Z,1013.81
2022-09-20T12:28:30.075Z,1013.89
2022-09-20T12:33:34.188Z,1013.89
2022-09-20T12:38:36.480Z,1013.80
2022-09-20T12:43:40.659Z,1013.84
2022-09-20T12:48:42.901Z,1013.86
2022-09-20T12:53:47.098Z,1013.82
2022-09-20T12:58:51.211Z,1013.75
2022-09-20T13:03:55.511Z,1013.74
2022-09-20T13:08:59.559Z,1013.78
2022-09-20T13:14:03.717Z,1013.72
2022-09-20T13:19:07.984Z,1013.62
2022-09-20T13:24:12.013Z,1013.58
2022-09-20T13:29:16.262Z,1013.56
2022-09-20T13:34:20.363Z,1013.53
2022-09-20T13:39:24.535Z,1013.65
2022-09-20T13:44:28.688Z,1013.61
2022-09-20T13:49:32.836Z,1013.60
2022-09-20T13:54:37.007Z,1013.67
2022-09-20T13:59:41.156Z,1013.62
2022-09-20T14:04:45.346Z,1013.63
2022-09-20T14:09:49.484Z,1013.73
2022-09-20T14:14:53.632Z,1013.66
2022-09-20T14:19:57.791Z,1013.66
2022-09-20T14:25:01.975Z,1013.60
2022-09-20T14:35:10.271Z,1013.60
2022-09-20T14:40:12.565Z,1013.62
2022-09-20T14:45:16.725Z,1013.70
2022-09-20T14:50:18.945Z,1013.76
2022-09-20T14:55:23.155Z,1013.73
2022-09-20T15:00:27.290Z,1013.74
2022-09-20T15:05:31.459Z,1013.78
2022-09-20T15:10:35.598Z,1013.78
2022-09-20T15:15:39.778Z,1013.84
2022-09-20T15:20:43.948Z,1013.76
2022-09-20T15:25:48.084Z,1013.76
2022-09-20T15:30:52.254Z,1013.81
2022-09-20T15:35:56.417Z,1013.82
2022-09-20T15:41:00.569Z,1013.87
2022-09-20T15:46:04.768Z,1013.71
2022-09-20T15:51:08.893Z,1013.70
2022-09-20T15:56:13.070Z,1013.81
2022-09-20T16:01:17.271Z,1013.82
2022-09-20T16:06:21.376Z,1013.78
2022-09-20T16:11:25.573Z,1013.85
2022-09-20T16:16:29.729Z,1013.88
2022-09-20T16:21:33.901Z,1013.85
2022-09-20T16:26:38.007Z,1013.93
2022-09-20T16:31:42.282Z,1013.94
2022-09-20T16:36:44.464Z,1013.97
2022-09-20T16:41:48.601Z,1014.06
2022-09-20T16:46:50.876Z,1014.07
2022-09-20T16:51:55.058Z,1014.06
2022-09-20T16:56:59.201Z,1014.08
2022-09-20T17:02:03.388Z,1014.08
2022-09-20T17:07:07.546Z,1014.14
2022-09-20T17:12:11.705Z,1014.32
2022-09-20T17:17:15.845Z,1014.31
2022-09-20T17:27:24.280Z,1014.35
2022-09-20T17:32:28.372Z,1014.37
2022-09-20T17:37:32.507Z,1014.51
2022-09-20T17:42:36.646Z,1014.60
2022-09-20T17:47:40.828Z,1014.64
2022-09-20T17:52:44.994Z,1014.68
2022-09-20T17:57:49.113Z,1014.78
2022-09-20T18:02:53.328Z,1014.83
2022-09-20T18:07:57.502Z,1014.95
2022-09-20T18:13:01.691Z,1014.97
2022-09-20T18:18:05.819Z,1015.03
2022-09-20T18:23:09.957Z,1015.15
2022-09-20T18:28:14.127Z,1015.12
2022-09-20T18:33:18.280Z,1015.21
2022-09-20T18:38:20.543Z,1015.23
2022-09-20T18:43:24.702Z,1015.26
2022-09-20T18:48:26.958Z,1015.25
2022-09-20T18:53:31.139Z,1015.31
2022-09-20T18:58:35.300Z,1015.31
2022-09-20T19:03:39.435Z,1015.32
2022-09-20T19:08:43.606Z,1015.36
2022-09-20T19:13:47.769Z,1015.39
2022-09-20T19:18:51.957Z,1015.41
2022-09-20T19:23:58.860Z,1015.48
2022-09-20T19:29:00.292Z,1015.61
2022-09-20T19:34:04.444Z,1015.63
2022-09-20T19:39:08.657Z,1015.73
2022-09-20T19:44:12.731Z,1015.80
2022-09-20T19:49:16.932Z,1015.87
2022-09-20T19:54:19.162Z,1015.87
2022-09-20T19:59:23.377Z,1015.84
2022-09-20T20:04:29.517Z,1016.00
2022-09-20T20:09:31.697Z,1016.02
2022-09-20T20:14:35.839Z,1016.08
2022-09-20T20:19:40.024Z,1016.05
2022-09-20T20:24:44.141Z,1016.13
2022-09-20T20:29:48.313Z,1016.11
2022-09-20T20:34:50.592Z,1016.16
2022-09-20T20:39:54.730Z,1016.21
2022-09-20T20:44:57.016Z,1016.19
2022-09-20T20:50:01.199Z,1016.29
2022-09-20T20:55:05.354Z,1016.37
2022-09-20T21:00:09.499Z,1016.38
2022-09-20T21:05:13.654Z,1016.38
2022-09-20T21:10:17.818Z,1016.41
2022-09-20T21:15:21.976Z,1016.41
2022-09-20T21:20:26.148Z,1016.46
2022-09-20T21:25:30.307Z,1016.45
2022-09-20T21:30:34.451Z,1016.49
2022-09-20T21:35:38.656Z,1016.62
2022-09-20T21:40:42.788Z,1016.58
2022-09-20T21:45:46.939Z,1016.65
2022-09-20T21:55:55.275Z,1016.71
2022-09-20T22:00:59.469Z,1016.78
2022-09-20T22:06:03.581Z,1016.83
2022-09-20T22:11:11.084Z,1016.78
2022-09-20T22:16:11.936Z,1016.77
2022-09-20T22:21:16.085Z,1016.80
2022-09-20T22:26:20.250Z,1016.88
2022-09-20T22:31:24.416Z,1016.86
2022-09-20T22:36:26.679Z,1016.88
2022-09-20T22:41:30.870Z,1016.85
2022-09-20T22:46:35.034Z,1016.79
2022-09-20T22:51:39.157Z,1016.84
2022-09-20T22:56:43.347Z,1016.85
2022-09-20T23:01:48.539Z,1016.84
2022-09-20T23:06:51.673Z,1016.75
2022-09-20T23:11:55.797Z,1016.83
2022-09-20T23:17:00.083Z,1016.85
2022-09-20T23:22:04.164Z,1016.89
2022-09-20T23:27:08.316Z,1016.87
2022-09-20T23:32:12.453Z,1016.79
2022-09-20T23:37:16.646Z,1016.85
2022-09-20T23:42:20.815Z,1016.89
2022-09-20T23:47:24.947Z,1016.82
2022-09-20T23:52:29.115Z,1016.98
2022-09-20T23:57:33.289Z,1016.91
